Time;durP1;ratioP1;P1;durP2;ratioP2;P2;SDS_P1;SDS_P2;PMS_P1;PMS_P2;Temp;Humidity;BMP_temperature;BMP_pressure;BME280_temperature;BME280_humidity;BME280_pressure;Samples;Min_cycle;Max_cycle;Signal;HPM_P1;HPM_P2
2022/11/16 00:02:36;;;;;;;17.80;16.30;;;;;;;4.16;100.00;99060.81;10506122;28;20040;-74
2022/11/16 00:07:37;;;;;;;16.60;15.30;;;;;;;4.08;100.00;99057.50;10487949;28;20048;-73
2022/11/16 00:12:39;;;;;;;16.83;15.32;;;;;;;4.05;100.00;99053.22;10507764;28;20147;-73
2022/11/16 00:17:41;;;;;;;15.80;14.30;;;;;;;4.07;100.00;99041.91;10487725;28;20115;-73
2022/11/16 00:22:43;;;;;;;17.08;15.57;;;;;;;4.37;100.00;99048.19;10505890;28;20058;-73
2022/11/16 00:27:44;;;;;;;14.73;13.52;;;;;;;4.14;100.00;99039.16;10504494;28;20041;-74
2022/11/16 00:32:46;;;;;;;14.82;13.57;;;;;;;4.05;100.00;99040.22;10517388;22;20521;-71
2022/11/16 00:37:50;;;;;;;14.75;13.45;;;;;;;4.15;100.00;99030.47;10484253;28;20045;-72
2022/11/16 00:42:52;;;;;;;15.70;14.30;;;;;;;4.37;100.00;99017.84;10503908;28;20055;-71
2022/11/16 00:47:53;;;;;;;13.18;12.18;;;;;;;4.40;100.00;99020.38;10502380;28;20045;-72
2022/11/16 00:53:01;;;;;;;12.98;11.98;;;;;;;4.50;100.00;99008.00;10484656;28;20053;-72
2022/11/16 00:58:03;;;;;;;12.75;11.75;;;;;;;4.24;100.00;99006.00;10484117;28;20047;-71
2022/11/16 01:03:05;;;;;;;12.55;11.60;;;;;;;4.26;100.00;99001.63;10483048;28;20040;-72
2022/11/16 01:08:07;;;;;;;13.63;12.45;;;;;;;4.31;100.00;98997.16;10467201;28;20059;-71
2022/11/16 01:13:10;;;;;;;13.43;12.32;;;;;;;4.38;100.00;98992.66;10483941;28;20044;-72
2022/11/16 01:18:12;;;;;;;12.93;11.80;;;;;;;4.39;100.00;98987.44;10501117;28;20052;-72
2022/11/16 01:23:14;;;;;;;12.95;11.95;;;;;;;4.30;100.00;98980.72;10501221;28;20119;-72
2022/11/16 01:28:16;;;;;;;13.20;12.10;;;;;;;4.37;100.00;98978.81;10482297;28;20402;-71
2022/11/16 01:33:23;;;;;;;12.48;11.38;;;;;;;4.30;100.00;98970.31;10485058;28;20532;-72
2022/11/16 01:38:25;;;;;;;12.98;11.88;;;;;;;4.44;100.00;98963.91;10484145;28;20599;-71
2022/11/16 01:43:51;;;;;;;12.35;11.35;;;;;;;4.56;100.00;98955.81;10482175;28;20055;-71
2022/11/16 01:49:22;;;;;;;11.48;10.48;;;;;;;4.48;100.00;98948.19;10481454;28;20524;-72
2022/11/16 01:54:28;;;;;;;12.18;11.20;;;;;;;4.41;100.00;98940.56;10481143;28;20498;-71
2022/11/16 01:59:32;;;;;;;14.05;12.95;;;;;;;4.46;100.00;98936.94;10481394;28;20405;-71
2022/11/16 02:04:34;;;;;;;12.13;11.13;;;;;;;4.25;100.00;98930.53;10481186;28;20048;-72
2022/11/16 02:09:57;;;;;;;12.43;11.40;;;;;;;4.42;100.00;98924.91;10464876;28;20075;-72
2022/11/16 02:15:26;;;;;;;12.88;11.63;;;;;;;4.46;100.00;98923.94;10481714;28;20071;-72
2022/11/16 02:21:01;;;;;;;13.43;12.43;;;;;;;4.28;100.00;98920.03;10505443;28;20537;-72
2022/11/16 02:26:51;;;;;;;13.25;11.95;;;;;;;4.28;100.00;98919.19;10489617;28;20048;-71
2022/11/16 02:32:11;;;;;;;13.05;11.95;;;;;;;4.49;100.00;98910.00;10507245;28;20501;-72
2022/11/16 02:37:17;;;;;;;12.98;11.80;;;;;;;4.35;100.00;98901.69;10488733;28;20056;-71
2022/11/16 02:42:28;;;;;;;13.50;12.40;;;;;;;4.40;100.00;98885.06;10472388;28;20091;-71
2022/11/16 02:47:33;;;;;;;13.38;12.35;;;;;;;4.58;100.00;98875.09;10506113;28;20040;-71
2022/11/16 02:52:37;;;;;;;14.65;13.35;;;;;;;4.52;100.00;98869.16;10489744;28;20056;-72
2022/11/16 02:58:05;;;;;;;12.93;11.82;;;;;;;4.55;100.00;98863.84;10487902;28;20044;-71
2022/11/16 03:03:27;;;;;;;14.48;13.18;;;;;;;4.66;100.00;98866.19;10488330;28;20048;-72
2022/11/16 03:08:40;;;;;;;14.73;13.43;;;;;;;4.48;100.00;98859.72;10488443;28;20044;-72
2022/11/16 03:13:46;;;;;;;13.85;12.65;;;;;;;4.53;100.00;98857.84;10506367;28;20124;-73
2022/11/16 03:18:50;;;;;;;14.05;12.95;;;;;;;4.61;100.00;98862.00;10505477;28;20091;-72
2022/11/16 03:23:53;;;;;;;14.93;13.52;;;;;;;4.63;100.00;98857.59;10486453;28;20075;-72
2022/11/16 03:29:12;;;;;;;14.70;13.32;;;;;;;4.88;100.00;98865.63;10503490;28;20037;-72
2022/11/16 03:34:17;;;;;;;13.65;12.45;;;;;;;4.88;100.00;98861.25;10485862;28;20048;-73
2022/11/16 03:39:24;;;;;;;13.75;12.60;;;;;;;4.85;100.00;98856.13;10469910;28;20037;-72
2022/11/16 03:44:27;;;;;;;12.93;11.82;;;;;;;4.95;100.00;98851.50;10485964;28;20071;-73
2022/11/16 03:49:30;;;;;;;13.20;12.07;;;;;;;5.05;100.00;98851.22;10505364;28;20398;-73
2022/11/16 03:54:32;;;;;;;13.75;12.52;;;;;;;5.19;100.00;98850.84;10485540;28;20474;-73
2022/11/16 03:59:34;;;;;;;12.07;11.07;;;;;;;5.24;100.00;98843.72;10484798;28;20045;-72
2022/11/16 04:26:12;;;;;;;11.52;10.52;;;;;;;5.53;100.00;98835.06;10374312;28;20062;-73
2022/11/16 04:42:14;;;;;;;11.23;10.23;;;;;;;5.66;100.00;98824.22;10357037;28;20042;-71
2022/11/16 04:47:18;;;;;;;11.45;10.45;;;;;;;5.66;100.00;98819.88;10358000;28;20081;-73
2022/11/16 04:52:21;;;;;;;10.65;9.70;;;;;;;5.78;100.00;98824.69;10357127;28;20048;-73
2022/11/16 04:57:23;;;;;;;9.48;8.68;;;;;;;5.74;100.00;98827.47;10462747;28;20174;-73
2022/11/16 05:02:25;;;;;;;9.27;8.52;;;;;;;5.78;100.00;98836.88;10483446;28;20071;-72
2022/11/16 05:07:30;;;;;;;10.27;9.48;;;;;;;5.80;100.00;98845.53;10482979;28;20048;-72
2022/11/16 05:12:42;;;;;;;10.93;9.93;;;;;;;5.74;100.00;98843.09;10482803;28;20052;-72
2022/11/16 05:17:45;;;;;;;9.93;9.02;;;;;;;5.87;100.00;98847.03;10483306;28;20048;-72
2022/11/16 05:22:56;;;;;;;8.77;8.07;;;;;;;5.97;100.00;98839.78;10482670;28;20067;-72
2022/11/16 05:28:00;;;;;;;8.98;8.23;;;;;;;5.97;100.00;98839.78;10481859;28;20514;-72
2022/11/16 05:33:04;;;;;;;9.73;8.93;;;;;;;5.83;100.00;98846.28;10481983;28;20402;-72
2022/11/16 05:38:10;;;;;;;8.80;8.10;;;;;;;5.86;100.00;98839.25;10474085;28;20040;-72
2022/11/16 05:43:17;;;;;;;8.05;7.43;;;;;;;5.92;100.00;98842.53;10482538;28;20041;-71
2022/11/16 05:48:29;;;;;;;8.80;8.00;;;;;;;5.93;100.00;98844.28;10481486;28;20098;-71
2022/11/16 05:53:31;;;;;;;8.43;7.65;;;;;;;5.86;100.00;98839.25;10464364;28;20056;-71
2022/11/16 05:58:34;;;;;;;8.00;7.38;;;;;;;5.83;100.00;98850.63;10480984;28;20053;-72
2022/11/16 06:03:36;;;;;;;8.65;7.85;;;;;;;5.81;100.00;98847.22;10480580;28;20525;-72
2022/11/16 06:08:38;;;;;;;8.88;8.18;;;;;;;5.66;100.00;98847.69;10499400;28;20413;-72
2022/11/16 06:13:44;;;;;;;8.20;7.50;;;;;;;5.77;100.00;98845.63;10483695;28;20040;-72
2022/11/16 06:18:46;;;;;;;9.35;8.55;;;;;;;5.94;100.00;98853.81;10481765;28;20094;-72
2022/11/16 06:23:49;;;;;;;8.63;7.88;;;;;;;5.93;100.00;98859.03;10484257;28;20460;-72
2022/11/16 06:28:53;;;;;;;8.32;7.63;;;;;;;6.02;100.00;98863.97;10483677;28;20410;-72
2022/11/16 06:33:56;;;;;;;7.50;6.80;;;;;;;5.95;100.00;98863.31;10470492;22;20049;-67
2022/11/16 06:39:01;;;;;;;7.55;6.90;;;;;;;5.86;100.00;98854.91;10454705;28;20049;-69
2022/11/16 06:44:07;;;;;;;7.38;6.78;;;;;;;5.97;100.00;98845.00;10439288;28;20041;-68
2022/11/16 06:49:12;;;;;;;6.78;6.18;;;;;;;5.83;100.00;98851.47;10437073;28;20067;-69
2022/11/16 06:54:14;;;;;;;5.95;5.43;;;;;;;6.08;99.04;98840.31;10436957;28;20118;-69
2022/11/16 06:59:16;;;;;;;7.25;6.55;;;;;;;5.95;99.46;98849.44;10455084;28;20490;-68
2022/11/16 07:04:19;;;;;;;6.80;6.22;;;;;;;5.95;99.99;98849.44;10438078;28;20049;-68
2022/11/16 07:09:27;;;;;;;8.25;7.55;;;;;;;5.88;100.00;98842.66;10444778;28;20037;-69
2022/11/16 07:14:29;;;;;;;8.23;7.53;;;;;;;5.94;100.00;98838.16;10445046;28;20056;-69
2022/11/16 07:19:31;;;;;;;8.70;8.00;;;;;;;6.11;98.64;98841.94;10462142;28;20041;-69
2022/11/16 07:24:33;;;;;;;8.27;7.57;;;;;;;6.02;99.64;98846.59;10446592;28;20391;-69
2022/11/16 07:29:36;;;;;;;9.48;8.57;;;;;;;6.21;98.60;98856.44;10443862;28;20510;-69
2022/11/16 07:34:55;;;;;;;9.20;8.40;;;;;;;6.15;98.57;98848.78;10443818;28;20048;-69
2022/11/16 07:40:00;;;;;;;8.63;7.90;;;;;;;6.29;97.61;98847.44;10443313;28;20045;-69
2022/11/16 07:45:06;;;;;;;9.10;8.30;;;;;;;6.31;97.62;98843.00;10443471;28;20052;-68
2022/11/16 07:50:12;;;;;;;10.05;9.25;;;;;;;6.43;96.36;98838.28;10444465;28;20041;-68
2022/11/16 07:55:14;;;;;;;8.88;8.18;;;;;;;6.47;96.30;98838.13;10442455;28;20052;-68
2022/11/16 08:00:17;;;;;;;9.85;9.05;;;;;;;6.32;97.62;98839.47;10425854;28;20434;-70
2022/11/16 08:05:26;;;;;;;9.02;8.25;;;;;;;6.57;95.50;98838.66;10442119;28;20136;-69
2022/11/16 08:10:31;;;;;;;9.10;8.32;;;;;;;6.55;95.07;98830.91;10442202;28;20457;-68
2022/11/16 08:15:33;;;;;;;9.57;8.77;;;;;;;6.57;94.91;98823.84;10442129;28;20449;-69
2022/11/16 08:20:38;;;;;;;9.73;8.82;;;;;;;6.37;97.09;98817.59;10441940;28;20096;-69
2022/11/16 08:25:40;;;;;;;8.63;7.90;;;;;;;6.55;94.65;98820.44;10459177;28;20045;-69
2022/11/16 08:30:42;;;;;;;8.23;7.50;;;;;;;6.70;94.16;98818.19;10459776;28;20410;-69
2022/11/16 08:35:44;;;;;;;9.00;8.20;;;;;;;6.76;93.40;98813.59;10440789;28;20071;-69
2022/11/16 08:40:48;;;;;;;8.35;7.65;;;;;;;6.71;93.36;98812.06;10440653;28;20565;-69
2022/11/16 08:45:52;;;;;;;8.23;7.43;;;;;;;6.93;92.17;98815.59;10440439;28;20406;-69
2022/11/16 08:50:54;;;;;;;8.48;7.68;;;;;;;6.94;93.42;98817.31;10441151;28;20079;-69
2022/11/16 08:56:19;;;;;;;8.13;7.43;;;;;;;7.00;92.81;98816.25;10440161;28;20051;-69
2022/11/16 09:01:24;;;;;;;7.97;7.28;;;;;;;7.03;93.85;98814.34;10439855;28;20514;-69
2022/11/16 09:06:27;;;;;;;7.53;6.90;;;;;;;7.17;92.04;98821.72;10457249;28;20087;-69
2022/11/16 09:11:28;;;;;;;8.80;8.10;;;;;;;7.29;90.30;98825.59;10457511;28;20095;-68
2022/11/16 09:16:30;;;;;;;7.70;7.00;;;;;;;7.36;90.47;98821.84;10459047;28;20123;-69
2022/11/16 09:21:32;;;;;;;7.68;7.00;;;;;;;7.46;90.10;98823.19;10457578;28;20124;-69
2022/11/16 09:26:35;;;;;;;8.82;8.02;;;;;;;7.51;89.99;98817.78;10458315;28;20068;-69
2022/11/16 09:31:37;;;;;;;9.20;8.40;;;;;;;7.44;91.22;98817.19;10457030;28;20044;-69
2022/11/16 09:36:39;;;;;;;6.90;6.35;;;;;;;7.62;89.14;98818.25;10457533;28;20121;-69
2022/11/16 09:41:52;;;;;;;7.10;6.50;;;;;;;7.69;87.88;98808.38;10456790;28;20040;-69
2022/11/16 09:46:59;;;;;;;7.85;7.22;;;;;;;7.75;88.26;98808.16;10456238;28;20053;-69
2022/11/16 09:52:04;;;;;;;;;;;;;;;7.79;87.83;98800.13;10469553;28;20036;-69
2022/11/16 09:57:10;;;;;;;7.15;6.55;;;;;;;7.61;87.73;98803.44;10466933;28;19921;-69
2022/11/16 10:02:35;;;;;;;7.57;6.88;;;;;;;7.50;88.05;98792.56;10494301;28;20037;-69
2022/11/16 10:07:47;;;;;;;6.60;6.05;;;;;;;7.87;85.34;98784.09;10467625;28;20056;-69
2022/11/16 10:13:00;;;;;;;6.78;6.18;;;;;;;7.78;87.25;98782.69;10455755;28;20105;-69
2022/11/16 10:18:33;;;;;;;7.43;6.80;;;;;;;7.59;88.06;98779.97;10457633;28;20422;-69
2022/11/16 10:24:23;;;;;;;6.88;6.38;;;;;;;7.90;87.02;98775.28;10458502;28;20040;-69
2022/11/16 10:30:05;;;;;;;7.00;6.50;;;;;;;8.00;85.56;98759.13;10398156;28;20087;-67
2022/11/16 10:35:10;;;;;;;7.10;6.53;;;;;;;7.90;86.65;98742.13;10460115;28;20044;-67
2022/11/16 10:40:18;;;;;;;6.07;5.57;;;;;;;7.89;86.48;98747.41;10459689;28;20457;-67
2022/11/16 10:45:31;;;;;;;5.72;5.32;;;;;;;8.18;83.20;98738.31;10462820;28;20041;-68
2022/11/16 10:50:40;;;;;;;5.68;5.18;;;;;;;8.12;82.88;98744.69;10461282;28;20037;-68
2022/11/16 10:55:42;;;;;;;5.28;4.88;;;;;;;7.89;85.61;98740.41;10462738;28;20041;-66
2022/11/16 11:00:50;;;;;;;5.63;5.22;;;;;;;8.17;82.74;98739.25;10463223;28;20044;-67
2022/11/16 11:05:52;;;;;;;5.15;4.30;;;;;;;8.18;82.82;98735.72;10462772;28;20048;-68
2022/11/16 11:12:36;;;;;;;4.65;4.25;;;;;;;8.15;82.32;98728.84;10461678;28;20041;-68
2022/11/16 11:16:24;;;;;;;4.25;3.85;;;;;;;8.18;81.47;98730.47;10461563;28;20053;-67
2022/11/16 11:21:26;;;;;;;5.00;4.60;;;;;;;8.09;82.68;98727.31;10462145;28;20394;-67
2022/11/16 11:26:37;;;;;;;4.82;4.43;;;;;;;8.31;81.02;98727.25;10443908;28;20360;-67
2022/11/16 11:31:43;;;;;;;5.07;4.68;;;;;;;8.45;79.63;98731.06;10442996;28;20088;-68
2022/11/16 11:36:51;;;;;;;5.53;4.03;;;;;;;8.47;79.86;98729.25;10426132;28;20499;-69
2022/11/16 11:42:02;;;;;;;3.85;3.55;;;;;;;8.26;82.87;98723.16;10460876;28;20110;-69
2022/11/16 11:47:27;;;;;;;3.85;3.55;;;;;;;8.44;79.91;98717.13;10439748;28;20372;-68
2022/11/16 11:53:14;;;;;;;3.63;3.33;;;;;;;8.48;78.41;98721.31;10398132;28;20065;-68
2022/11/16 11:58:17;;;;;;;2.72;2.53;;;;;;;8.40;81.00;98719.97;10419007;28;20061;-68
2022/11/16 12:03:39;;;;;;;2.50;2.30;;;;;;;8.65;78.58;98722.34;10417596;28;20117;-68
2022/11/16 12:09:10;;;;;;;2.28;2.08;;;;;;;8.45;79.74;98724.06;10419817;28;20502;-68
2022/11/16 12:14:40;;;;;;;2.80;2.60;;;;;;;8.61;78.38;98726.88;10418510;28;20045;-68
2022/11/16 12:19:56;;;;;;;2.85;2.63;;;;;;;8.52;79.54;98720.28;10418363;28;20046;-68
2022/11/16 12:25:17;;;;;;;3.03;2.80;;;;;;;8.77;77.98;98727.06;10418171;28;20064;-68
2022/11/16 12:30:22;;;;;;;2.60;2.40;;;;;;;8.57;78.54;98728.78;10418844;28;20046;-68
2022/11/16 12:35:47;;;;;;;2.50;2.20;;;;;;;8.51;80.03;98721.19;10436058;22;20417;-73
2022/11/16 12:41:24;;;;;;;2.42;2.20;;;;;;;8.69;78.98;98714.28;10421826;28;20033;-73
2022/11/16 12:47:03;;;;;;;2.35;2.15;;;;;;;8.81;78.96;98711.13;10399697;28;20065;-73
2022/11/16 12:52:17;;;;;;;2.72;2.53;;;;;;;8.83;78.99;98717.13;10421038;28;20458;-71
2022/11/16 12:57:27;;;;;;;2.42;2.22;;;;;;;8.83;79.49;98706.63;10421983;28;20450;-73
2022/11/16 13:03:06;;;;;;;2.65;2.45;;;;;;;8.87;79.23;98698.66;10421084;28;20072;-71
2022/11/16 13:08:16;;;;;;;2.92;2.72;;;;;;;8.45;82.95;98708.34;10403758;28;20113;-72
2022/11/16 13:13:28;;;;;;;3.05;2.78;;;;;;;8.28;85.20;98701.22;10419977;28;20048;-72
2022/11/16 13:18:51;;;;;;;2.78;2.58;;;;;;;8.24;86.58;98704.06;10419827;28;20549;-71
2022/11/16 13:24:06;;;;;;;3.03;2.80;;;;;;;8.32;88.10;98704.53;10420681;28;20064;-72
2022/11/16 13:29:13;;;;;;;3.83;3.45;;;;;;;8.43;87.52;98704.97;10419075;28;20057;-71
2022/11/16 13:34:30;;;;;;;3.40;3.10;;;;;;;8.18;89.65;98697.28;10417569;28;20503;-72
2022/11/16 13:39:57;;;;;;;3.38;3.08;;;;;;;8.17;91.98;98698.22;10418070;28;20044;-73
2022/11/16 13:45:20;;;;;;;3.65;3.17;;;;;;;7.97;94.69;98693.84;10417044;28;20052;-71
2022/11/16 13:50:32;;;;;;;3.78;3.40;;;;;;;8.02;95.74;98691.88;10400137;28;20533;-71
2022/11/16 13:55:45;;;;;;;4.50;4.10;;;;;;;8.01;96.87;98700.66;10416946;28;20044;-71
2022/11/16 14:00:55;;;;;;;4.38;4.07;;;;;;;7.99;97.67;98699.00;10417263;28;20061;-70
2022/11/16 14:05:57;;;;;;;4.20;3.90;;;;;;;7.79;100.00;98687.63;10398805;28;20053;-71
2022/11/16 14:11:00;;;;;;;4.82;4.43;;;;;;;7.82;100.00;98686.63;10416440;28;20041;-70
2022/11/16 14:16:45;;;;;;;7.22;6.72;;;;;;;7.93;100.00;98680.97;10403543;28;20104;-70
2022/11/16 14:21:57;;;;;;;6.72;6.20;;;;;;;7.95;99.81;98677.34;10421927;28;20049;-71
2022/11/16 14:27:32;;;;;;;6.72;6.22;;;;;;;8.06;99.84;98675.13;10407046;28;20383;-71
2022/11/16 14:32:43;;;;;;;7.60;6.85;;;;;;;7.89;100.00;98675.00;10424265;28;20092;-71
2022/11/16 14:37:44;;;;;;;8.38;7.68;;;;;;;7.77;100.00;98673.75;10406933;28;20045;-71
2022/11/16 14:42:52;;;;;;;7.10;6.60;;;;;;;7.83;100.00;98667.41;10424938;28;20065;-71
2022/11/16 14:48:16;;;;;;;7.88;7.28;;;;;;;7.70;100.00;98671.44;10424556;28;20042;-71
2022/11/16 14:53:19;;;;;;;7.60;6.97;;;;;;;7.59;100.00;98670.13;10424466;28;20068;-70
2022/11/16 14:58:22;;;;;;;8.73;8.13;;;;;;;7.57;100.00;98664.13;10425603;28;20411;-70
2022/11/16 15:03:27;;;;;;;10.38;9.57;;;;;;;7.47;100.00;98665.41;10423181;28;20060;-70
2022/11/16 15:08:41;;;;;;;9.27;8.57;;;;;;;7.28;100.00;98665.31;10406034;28;20077;-70
2022/11/16 15:13:46;;;;;;;10.85;10.10;;;;;;;7.55;100.00;98670.31;10423060;28;20505;-70
2022/11/16 15:18:59;;;;;;;11.10;10.20;;;;;;;7.40;100.00;98661.38;10422325;28;20068;-70
2022/11/16 15:24:01;;;;;;;12.05;11.05;;;;;;;7.24;100.00;98657.66;10425488;28;20053;-71
2022/11/16 15:29:23;;;;;;;12.85;11.85;;;;;;;6.94;100.00;98662.31;10410835;28;20466;-70
2022/11/16 15:34:25;;;;;;;12.77;11.70;;;;;;;7.26;100.00;98651.47;10405710;28;20140;-73
2022/11/16 15:39:32;;;;;;;13.65;12.32;;;;;;;7.11;100.00;98653.84;10422984;28;20038;-70
2022/11/16 15:44:34;;;;;;;13.75;12.65;;;;;;;7.04;100.00;98656.69;10424065;28;20061;-70
2022/11/16 15:49:38;;;;;;;14.80;13.60;;;;;;;6.67;100.00;98661.63;10405774;28;20049;-69
2022/11/16 16:00:01;;;;;;;14.93;13.75;;;;;;;6.90;100.00;98663.34;10424065;28;20041;-70
2022/11/16 16:05:05;;;;;;;15.18;13.98;;;;;;;6.93;100.00;98653.66;10406664;28;20053;-70
2022/11/16 16:10:12;;;;;;;15.85;14.48;;;;;;;7.03;100.00;98652.34;10423800;28;20044;-71
2022/11/16 16:15:35;;;;;;;16.65;15.05;;;;;;;6.68;100.00;98647.66;10407122;28;20467;-70
2022/11/16 16:20:37;;;;;;;15.80;14.60;;;;;;;6.57;100.00;98650.69;10424216;28;20052;-70
2022/11/16 16:25:39;;;;;;;17.60;16.15;;;;;;;6.77;100.00;98652.53;10406365;28;20045;-71
2022/11/16 16:30:49;;;;;;;18.13;16.33;;;;;;;6.58;100.00;98655.84;10424227;28;20042;-71
2022/11/16 16:35:51;;;;;;;19.27;17.63;;;;;;;6.62;100.00;98648.75;10404710;28;20099;-70
2022/11/16 16:41:02;;;;;;;17.90;16.23;;;;;;;6.65;100.00;98653.00;10408312;28;20038;-71
2022/11/16 16:46:04;;;;;;;17.17;15.68;;;;;;;6.75;100.00;98654.34;10408724;28;20574;-70
2022/11/16 16:51:10;;;;;;;16.98;15.38;;;;;;;6.68;100.00;98658.09;10408524;28;20046;-70
2022/11/16 16:56:14;;;;;;;16.20;14.90;;;;;;;6.42;100.00;98651.22;10427491;28;20052;-69
2022/11/16 17:01:16;;;;;;;15.65;14.15;;;;;;;6.62;100.00;98653.97;10414822;28;20036;-70
2022/11/16 17:06:18;;;;;;;15.82;14.43;;;;;;;6.61;100.00;98649.66;10430717;28;20073;-71
2022/11/16 17:11:20;;;;;;;13.52;12.43;;;;;;;6.33;100.00;98655.06;10459502;28;20123;-71
2022/11/16 17:16:22;;;;;;;15.95;14.63;;;;;;;6.19;100.00;98654.69;10436184;28;20037;-70
2022/11/16 17:21:25;;;;;;;14.65;13.40;;;;;;;6.30;100.00;98655.16;10422806;28;20041;-70
2022/11/16 17:26:28;;;;;;;16.80;15.50;;;;;;;6.25;100.00;98655.34;10402191;28;20499;-71
2022/11/16 17:31:30;;;;;;;15.80;14.50;;;;;;;6.27;100.00;98652.66;10401632;28;20037;-71
2022/11/16 17:36:32;;;;;;;17.15;15.65;;;;;;;6.32;100.00;98646.34;10436040;28;20056;-71
2022/11/16 17:41:33;;;;;;;16.75;15.32;;;;;;;6.47;100.00;98642.34;10460842;28;20033;-70
2022/11/16 17:46:35;;;;;;;16.23;14.68;;;;;;;6.43;100.00;98651.19;10460452;28;20048;-71
2022/11/16 17:51:37;;;;;;;18.27;16.60;;;;;;;6.39;100.00;98648.75;10459712;28;20045;-71
2022/11/16 17:56:39;;;;;;;15.75;14.55;;;;;;;6.23;100.00;98648.47;10443069;28;20036;-70
2022/11/16 18:01:41;;;;;;;18.73;17.23;;;;;;;6.45;100.00;98645.91;10462462;28;20037;-71
2022/11/16 18:06:43;;;;;;;15.90;14.63;;;;;;;6.30;100.00;98652.56;10458636;28;20533;-71
2022/11/16 18:11:44;;;;;;;16.20;14.77;;;;;;;6.28;100.00;98659.56;10405337;28;20053;-71
2022/11/16 18:16:46;;;;;;;16.20;14.90;;;;;;;6.34;100.00;98651.53;10419128;28;20553;-71
2022/11/16 18:21:48;;;;;;;17.38;15.88;;;;;;;6.29;100.00;98650.88;10388554;28;20100;-71
2022/11/16 18:26:50;;;;;;;16.55;15.15;;;;;;;6.21;100.00;98652.91;10442665;28;20053;-71
2022/11/16 18:31:52;;;;;;;16.70;15.25;;;;;;;6.15;100.00;98655.72;10462492;22;20129;-83
2022/11/16 18:36:55;;;;;;;17.13;15.63;;;;;;;6.20;100.00;98652.06;10498755;28;20071;-82
2022/11/16 18:41:56;;;;;;;19.63;18.08;;;;;;;6.28;100.00;98656.97;10518970;28;20072;-83
2022/11/16 18:46:58;;;;;;;18.40;16.77;;;;;;;6.18;100.00;98660.81;10496296;28;20250;-83
2022/11/16 18:52:00;;;;;;;14.77;13.38;;;;;;;6.30;100.00;98658.63;10517064;28;20043;-82
2022/11/16 18:57:02;;;;;;;12.57;11.57;;;;;;;6.33;100.00;98649.84;10485915;28;20048;-84
2022/11/16 19:02:03;;;;;;;9.70;8.90;;;;;;;6.10;100.00;98644.59;10509234;28;20033;-84
2022/11/16 19:07:06;;;;;;;9.93;9.13;;;;;;;6.13;100.00;98641.88;10512060;28;20045;-83
2022/11/16 19:12:08;;;;;;;8.38;7.68;;;;;;;6.19;100.00;98642.50;10530783;28;20044;-82
2022/11/16 19:17:09;;;;;;;9.00;8.20;;;;;;;6.11;100.00;98641.94;10547184;28;20044;-81
2022/11/16 19:22:11;;;;;;;8.63;7.80;;;;;;;6.00;100.00;98644.06;10525019;28;20094;-82
2022/11/16 19:27:13;;;;;;;7.10;6.50;;;;;;;6.12;100.00;98645.41;10504741;28;20090;-81
2022/11/16 19:32:15;;;;;;;5.05;4.63;;;;;;;6.05;100.00;98648.22;10502916;28;20047;-82
2022/11/16 19:37:17;;;;;;;4.78;4.28;;;;;;;5.98;100.00;98651.13;10494183;28;20171;-83
2022/11/16 19:42:19;;;;;;;6.63;4.25;;;;;;;5.98;100.00;98648.50;10527384;28;20052;-81
2022/11/16 19:47:25;;;;;;;4.50;4.10;;;;;;;5.97;100.00;98650.22;10515995;28;20049;-82
2022/11/16 19:52:27;;;;;;;4.32;3.95;;;;;;;5.89;100.00;98646.16;10504060;28;20139;-82
2022/11/16 19:57:28;;;;;;;4.53;4.13;;;;;;;5.59;100.00;98643.72;10498899;28;20114;-82
2022/11/16 20:02:30;;;;;;;4.50;4.10;;;;;;;5.64;100.00;98646.16;10480227;28;20044;-81
2022/11/16 20:07:36;;;;;;;4.88;4.47;;;;;;;5.62;100.00;98642.75;10518044;28;20037;-82
2022/11/16 20:12:38;;;;;;;3.50;3.20;;;;;;;5.74;100.00;98639.72;10496933;28;20476;-83
2022/11/16 20:17:40;;;;;;;3.50;3.20;;;;;;;5.68;100.00;98637.34;10497110;28;20050;-82
2022/11/16 20:22:42;;;;;;;3.53;3.22;;;;;;;5.70;100.00;98640.72;10498045;28;20045;-82
2022/11/16 20:27:44;;;;;;;3.88;3.58;;;;;;;5.68;100.00;98638.19;10499294;28;20048;-82
2022/11/16 20:32:46;;;;;;;4.05;3.72;;;;;;;5.54;100.00;98630.84;10541961;28;20047;-82
2022/11/16 20:37:47;;;;;;;3.65;3.35;;;;;;;5.38;100.00;98640.06;10518619;28;20052;-80
2022/11/16 20:42:49;;;;;;;3.50;3.20;;;;;;;5.39;100.00;98633.94;10505809;28;20067;-82
2022/11/16 20:47:51;;;;;;;3.80;3.50;;;;;;;5.42;100.00;98643.44;10505014;28;20127;-81
2022/11/16 20:52:53;;;;;;;3.10;2.85;;;;;;;5.67;100.00;98638.25;10499030;28;20139;-81
2022/11/16 20:57:54;;;;;;;3.15;2.95;;;;;;;5.63;100.00;98636.66;10517875;28;20043;-81
2022/11/16 21:02:56;;;;;;;3.40;3.10;;;;;;;5.54;100.00;98638.66;10497586;28;20051;-82
2022/11/16 21:07:58;;;;;;;2.90;2.70;;;;;;;5.67;100.00;98641.72;10495795;28;20049;-82
2022/11/16 21:18:20;;;;;;;3.13;2.92;;;;;;;5.59;100.00;98638.50;10513372;28;20078;-81
2022/11/16 21:23:28;;;;;;;3.60;3.30;;;;;;;5.51;100.00;98643.97;10515592;28;20502;-81
2022/11/16 21:28:31;;;;;;;3.20;3.00;;;;;;;5.54;100.00;98646.47;10494277;28;20113;-82
2022/11/16 21:33:33;;;;;;;3.78;3.55;;;;;;;5.38;100.00;98658.31;10514407;28;20056;-80
2022/11/16 21:38:37;;;;;;;3.80;3.50;;;;;;;5.34;100.00;98653.25;10530897;28;20051;-82
2022/11/16 21:43:39;;;;;;;3.92;3.63;;;;;;;5.35;100.00;98650.56;10480416;28;20121;-81
2022/11/16 21:48:41;;;;;;;4.32;3.88;;;;;;;5.33;100.00;98660.22;10495235;28;20047;-82
2022/11/16 21:53:43;;;;;;;3.75;3.42;;;;;;;5.21;100.00;98651.03;10512365;28;20028;-82
2022/11/16 21:58:45;;;;;;;4.20;3.90;;;;;;;5.09;100.00;98654.06;10515479;28;20036;-84
2022/11/16 22:07:31;;;;;;;4.03;3.63;;;;;;;5.25;100.00;98646.56;10533058;28;20037;-83
2022/11/16 22:09:08;;;;;;;3.78;3.47;;;;;;;5.19;100.00;98646.78;10531112;28;20062;-83
2022/11/16 22:14:10;;;;;;;4.28;3.97;;;;;;;5.19;100.00;98646.78;10519661;28;20048;-83
2022/11/16 22:19:20;;;;;;;4.22;3.78;;;;;;;5.17;100.00;98651.19;10504775;28;20040;-83
2022/11/16 22:24:23;;;;;;;5.03;4.57;;;;;;;5.17;100.00;98653.78;10503483;28;20068;-84
2022/11/16 22:29:24;;;;;;;4.13;3.83;;;;;;;5.20;100.00;98661.50;10534183;28;20087;-84
2022/11/16 22:34:26;;;;;;;6.15;5.75;;;;;;;5.03;100.00;98659.44;10493805;28;20049;-83
2022/11/16 22:39:28;;;;;;;4.95;4.60;;;;;;;4.97;100.00;98657.88;10503418;28;20044;-84
2022/11/16 22:44:29;;;;;;;4.60;4.30;;;;;;;5.05;100.00;98653.28;10524005;28;20107;-84
2022/11/16 22:49:31;;;;;;;5.10;4.70;;;;;;;5.03;100.00;98647.25;10531530;28;20025;-83
2022/11/16 22:54:37;;;;;;;4.75;4.38;;;;;;;5.10;100.00;98639.28;10538621;28;20052;-82
2022/11/16 22:59:39;;;;;;;4.97;4.57;;;;;;;5.11;100.00;98640.97;10538075;28;20076;-82
2022/11/16 23:04:41;;;;;;;5.60;5.10;;;;;;;5.07;100.00;98641.06;10535608;28;20295;-82
2022/11/16 23:09:44;;;;;;;3.85;3.55;;;;;;;5.17;100.00;98646.81;10519508;28;20051;-83
2022/11/16 23:30:48;;;;;;;5.25;4.85;;;;;;;4.90;100.00;98626.88;10515543;28;20036;-83
2022/11/16 23:35:49;;;;;;;5.22;4.85;;;;;;;4.96;100.00;98635.34;10477990;28;20076;-82
2022/11/16 23:40:52;;;;;;;4.47;4.15;;;;;;;4.92;100.00;98630.28;10519449;28;20036;-82
2022/11/16 23:45:55;;;;;;;4.85;4.45;;;;;;;4.89;100.00;98625.16;10500475;28;20055;-83
2022/11/16 23:50:56;;;;;;;5.80;5.40;;;;;;;4.90;100.00;98625.09;10490857;28;20051;-84
2022/11/16 23:56:01;;;;;;;5.28;4.85;;;;;;;4.78;100.00;98618.56;10491410;28;20048;-83
